Los Angeles, CA (90077)

12:41 PM PDT on August 24, 2016 (GMT -0700)
Beverly Glen | | Change Station

Elev 843 ft 34.11 °N, 118.45 °W | Updated 1 minute ago

Clear
Clear
84.9 °F
Feels Like 85 °F
N
2.7
Wind Variable Wind from ENE

Today
High -- | Low -- °F
--% Chance of Precip.
Yesterday
High -- | Low -- °F
Precip. -- in
Pressure 30.02 in
Visibility 10.0 miles
Clouds Clear
Heat Index 85 °F
Dew Point 61 °F
Humidity 45%
Rainfall 0.00 in
Snow Depth Not available.
6:22 AM 7:29 PM
Waning Gibbous, 54% visible
METAR KSMO 241851Z 24008KT 10SM CLR 23/16 A3003 RMK AO2 SLP165 T02330156 $
Pressure 30.02 in
Visibility 10.0 miles
Clouds Clear
Heat Index 85 °F
Dew Point 61 °F
Humidity 45%
Rainfall 0.00 in
Snow Depth Not available.
6:22 AM 7:29 PM
Waning Gibbous, 54% visible
METAR KSMO 241851Z 24008KT 10SM CLR 23/16 A3003 RMK AO2 SLP165 T02330156 $

10-Day Weather Forecast

Almanac

Astronomy

Aug. 24, 2016 Rise Set
Actual Time
Civil Twilight
Nautical Twilight
Astronomical Twilight
Moon
Length of Visible Light
Length of Day
Tomorrow will be .
, % of the Moon is Illuminated

Today's Extremes

State Highs State Lows

Community

WunderPhotos

Upload Photos

1,934,690 photos uploaded!

WunderBlog® & News

Nearby

Air Quality

  Air Quality AQ Index Pollutant
Not available.

Snow Depth

Station Depth Elevation

Earthquake Activity

City Distance Mag. Time & Date
Minimum magnitude displayed is 2.5.

Coastal Water Temperatures

Place Temperature

Stations

Nearby Weather Stations

Station Location Temp. Windchill Dew Point Humidity Wind Precip. Elev Updated Type
                   

Watches & Warnings

There are currently no watches in effect.